sensor_id;sensor_type;location;lat;lon;timestamp;pressure;altitude;pressure_sealevel;temperature;humidity
64086;BME280;50333;47.436;21.390;2022-08-19T00:01:57;100096.09;;;26.32;47.78
64086;BME280;50333;47.436;21.390;2022-08-19T00:04:30;100099.44;;;26.15;48.36
64086;BME280;50333;47.436;21.390;2022-08-19T00:06:59;100097.38;;;26.57;47.19
64086;BME280;50333;47.436;21.390;2022-08-19T00:09:28;100099.53;;;26.29;47.85
64086;BME280;50333;47.436;21.390;2022-08-19T00:11:56;100093.78;;;26.27;47.78
64086;BME280;50333;47.436;21.390;2022-08-19T00:14:25;100094.50;;;26.17;48.38
64086;BME280;50333;47.436;21.390;2022-08-19T00:16:54;100082.75;;;26.36;48.04
64086;BME280;50333;47.436;21.390;2022-08-19T00:19:23;100083.88;;;26.31;48.20
64086;BME280;50333;47.436;21.390;2022-08-19T00:21:51;100085.75;;;26.20;48.36
64086;BME280;50333;47.436;21.390;2022-08-19T00:24:19;100085.50;;;26.54;47.40
64086;BME280;50333;47.436;21.390;2022-08-19T00:26:47;100088.13;;;26.43;47.91
64086;BME280;50333;47.436;21.390;2022-08-19T00:29:18;100094.63;;;26.39;48.14
64086;BME280;50333;47.436;21.390;2022-08-19T00:31:47;100093.41;;;26.25;48.51
64086;BME280;50333;47.436;21.390;2022-08-19T00:34:16;100095.41;;;26.46;47.73
64086;BME280;50333;47.436;21.390;2022-08-19T00:36:45;100086.62;;;26.46;47.55
64086;BME280;50333;47.436;21.390;2022-08-19T00:39:15;100098.81;;;26.40;47.73
64086;BME280;50333;47.436;21.390;2022-08-19T00:41:45;100095.72;;;26.30;47.90
64086;BME280;50333;47.436;21.390;2022-08-19T00:44:22;100092.75;;;26.50;46.92
64086;BME280;50333;47.436;21.390;2022-08-19T00:46:56;100095.72;;;26.30;47.36
64086;BME280;50333;47.436;21.390;2022-08-19T00:49:39;100090.31;;;26.16;47.88
64086;BME280;50333;47.436;21.390;2022-08-19T00:52:14;100095.69;;;26.27;47.76
64086;BME280;50333;47.436;21.390;2022-08-19T00:54:43;100100.94;;;26.09;47.90
64086;BME280;50333;47.436;21.390;2022-08-19T00:57:18;100101.87;;;26.42;47.13
64086;BME280;50333;47.436;21.390;2022-08-19T00:59:51;100106.25;;;26.05;48.20
64086;BME280;50333;47.436;21.390;2022-08-19T01:02:30;100105.53;;;26.12;48.10
64086;BME280;50333;47.436;21.390;2022-08-19T01:05:06;100098.34;;;26.20;47.95
64086;BME280;50333;47.436;21.390;2022-08-19T01:07:37;100110.94;;;26.26;47.74
64086;BME280;50333;47.436;21.390;2022-08-19T01:10:11;100111.78;;;26.38;47.36
64086;BME280;50333;47.436;21.390;2022-08-19T01:12:39;100113.28;;;26.31;47.75
64086;BME280;50333;47.436;21.390;2022-08-19T01:15:10;100115.59;;;26.37;47.68
64086;BME280;50333;47.436;21.390;2022-08-19T01:17:39;100111.69;;;26.20;48.02
64086;BME280;50333;47.436;21.390;2022-08-19T01:20:10;100103.28;;;26.21;47.97
64086;BME280;50333;47.436;21.390;2022-08-19T01:22:43;100102.16;;;26.22;48.07
64086;BME280;50333;47.436;21.390;2022-08-19T01:25:17;100106.47;;;26.41;47.57
64086;BME280;50333;47.436;21.390;2022-08-19T01:27:48;100104.94;;;26.44;47.27
64086;BME280;50333;47.436;21.390;2022-08-19T01:30:24;100103.78;;;25.82;49.48
64086;BME280;50333;47.436;21.390;2022-08-19T01:32:54;100101.66;;;25.54;50.77
64086;BME280;50333;47.436;21.390;2022-08-19T01:35:26;100100.56;;;25.58;50.79
64086;BME280;50333;47.436;21.390;2022-08-19T01:37:57;100097.50;;;25.19;51.54
64086;BME280;50333;47.436;21.390;2022-08-19T01:40:29;100094.09;;;25.18;51.74
64086;BME280;50333;47.436;21.390;2022-08-19T01:43:00;100101.84;;;25.31;51.35
64086;BME280;50333;47.436;21.390;2022-08-19T01:45:30;100100.69;;;25.32;51.32
64086;BME280;50333;47.436;21.390;2022-08-19T01:47:58;100102.97;;;25.30;51.21
64086;BME280;50333;47.436;21.390;2022-08-19T01:50:31;100094.31;;;25.40;50.81
64086;BME280;50333;47.436;21.390;2022-08-19T01:53:01;100098.84;;;25.36;50.71
64086;BME280;50333;47.436;21.390;2022-08-19T01:55:36;100098.37;;;25.71;49.17
64086;BME280;50333;47.436;21.390;2022-08-19T01:58:17;100106.50;;;25.89;48.33
64086;BME280;50333;47.436;21.390;2022-08-19T02:00:47;100095.03;;;25.85;48.28
64086;BME280;50333;47.436;21.390;2022-08-19T02:03:15;100097.75;;;25.92;47.92
64086;BME280;50333;47.436;21.390;2022-08-19T02:05:44;100097.03;;;25.95;47.87
64086;BME280;50333;47.436;21.390;2022-08-19T02:08:13;100087.03;;;25.89;48.01
64086;BME280;50333;47.436;21.390;2022-08-19T02:10:42;100083.94;;;25.80;48.15
64086;BME280;50333;47.436;21.390;2022-08-19T02:13:11;100078.53;;;25.72;48.41
64086;BME280;50333;47.436;21.390;2022-08-19T02:15:40;100074.72;;;25.70;48.53
64086;BME280;50333;47.436;21.390;2022-08-19T02:18:08;100067.75;;;25.58;48.95
64086;BME280;50333;47.436;21.390;2022-08-19T02:20:37;100064.69;;;25.56;48.96
64086;BME280;50333;47.436;21.390;2022-08-19T02:23:06;100059.72;;;25.54;49.06
64086;BME280;50333;47.436;21.390;2022-08-19T02:25:44;100059.03;;;25.65;48.99
64086;BME280;50333;47.436;21.390;2022-08-19T02:28:12;100047.91;;;25.55;49.20
64086;BME280;50333;47.436;21.390;2022-08-19T02:30:46;100041.75;;;25.48;49.18
64086;BME280;50333;47.436;21.390;2022-08-19T02:33:15;100043.53;;;25.33;49.79
64086;BME280;50333;47.436;21.390;2022-08-19T02:35:44;100046.97;;;25.33;49.59
64086;BME280;50333;47.436;21.390;2022-08-19T02:38:14;100044.66;;;25.32;49.63
64086;BME280;50333;47.436;21.390;2022-08-19T02:41:00;100044.66;;;25.32;49.54
64086;BME280;50333;47.436;21.390;2022-08-19T02:43:32;100037.31;;;25.21;49.75
64086;BME280;50333;47.436;21.390;2022-08-19T02:46:02;100037.25;;;25.14;50.07
64086;BME280;50333;47.436;21.390;2022-08-19T02:48:30;100039.91;;;25.14;50.12
64086;BME280;50333;47.436;21.390;2022-08-19T02:51:00;100046.47;;;25.20;49.92
64086;BME280;50333;47.436;21.390;2022-08-19T02:53:28;100042.25;;;25.19;49.83
64086;BME280;50333;47.436;21.390;2022-08-19T02:55:57;100047.97;;;24.80;50.75
64086;BME280;50333;47.436;21.390;2022-08-19T02:58:25;100052.09;;;25.12;50.27
64086;BME280;50333;47.436;21.390;2022-08-19T03:00:55;100060.81;;;25.09;50.18
64086;BME280;50333;47.436;21.390;2022-08-19T03:03:24;100065.16;;;24.87;50.82
64086;BME280;50333;47.436;21.390;2022-08-19T03:06:12;100066.91;;;25.09;50.21
64086;BME280;50333;47.436;21.390;2022-08-19T03:08:43;100077.91;;;25.04;50.30
64086;BME280;50333;47.436;21.390;2022-08-19T03:11:17;100070.44;;;25.17;49.84
64086;BME280;50333;47.436;21.390;2022-08-19T03:13:51;100071.31;;;25.28;49.61
64086;BME280;50333;47.436;21.390;2022-08-19T03:16:22;100076.31;;;25.33;49.47
64086;BME280;50333;47.436;21.390;2022-08-19T03:18:52;100075.84;;;25.24;49.76
64086;BME280;50333;47.436;21.390;2022-08-19T03:21:24;100071.25;;;25.25;49.76
64086;BME280;50333;47.436;21.390;2022-08-19T03:23:57;100078.56;;;25.28;49.59
64086;BME280;50333;47.436;21.390;2022-08-19T03:26:25;100081.13;;;25.20;49.82
64086;BME280;50333;47.436;21.390;2022-08-19T03:28:53;100081.06;;;25.13;49.97
64086;BME280;50333;47.436;21.390;2022-08-19T03:31:26;100072.62;;;25.08;50.20
64086;BME280;50333;47.436;21.390;2022-08-19T03:34:18;100070.63;;;25.01;50.40
64086;BME280;50333;47.436;21.390;2022-08-19T03:36:47;100070.91;;;24.89;50.62
64086;BME280;50333;47.436;21.390;2022-08-19T03:39:15;100072.44;;;24.90;50.57
64086;BME280;50333;47.436;21.390;2022-08-19T03:41:45;100073.50;;;24.81;50.81
64086;BME280;50333;47.436;21.390;2022-08-19T03:44:20;100073.72;;;24.69;51.29
64086;BME280;50333;47.436;21.390;2022-08-19T03:46:52;100075.25;;;24.67;51.30
64086;BME280;50333;47.436;21.390;2022-08-19T03:49:23;100072.81;;;24.54;51.68
64086;BME280;50333;47.436;21.390;2022-08-19T03:51:56;100076.44;;;24.42;51.90
64086;BME280;50333;47.436;21.390;2022-08-19T03:54:25;100088.31;;;24.48;52.05
64086;BME280;50333;47.436;21.390;2022-08-19T03:56:55;100099.41;;;24.51;52.00
64086;BME280;50333;47.436;21.390;2022-08-19T03:59:30;100102.16;;;24.58;51.75
64086;BME280;50333;47.436;21.390;2022-08-19T04:02:01;100103.38;;;24.64;51.70
64086;BME280;50333;47.436;21.390;2022-08-19T04:04:30;100117.03;;;24.59;51.87
64086;BME280;50333;47.436;21.390;2022-08-19T04:06:58;100112.59;;;24.70;51.71
64086;BME280;50333;47.436;21.390;2022-08-19T04:09:26;100114.94;;;24.75;51.52
64086;BME280;50333;47.436;21.390;2022-08-19T04:11:55;100121.47;;;24.81;51.47
64086;BME280;50333;47.436;21.390;2022-08-19T04:14:27;100121.19;;;24.90;51.41
64086;BME280;50333;47.436;21.390;2022-08-19T04:16:56;100115.94;;;24.97;51.20
64086;BME280;50333;47.436;21.390;2022-08-19T04:19:26;100119.53;;;25.12;50.87
64086;BME280;50333;47.436;21.390;2022-08-19T04:21:54;100117.69;;;25.20;50.67
64086;BME280;50333;47.436;21.390;2022-08-19T04:24:22;100113.28;;;25.31;50.35
64086;BME280;50333;47.436;21.390;2022-08-19T04:26:50;100121.78;;;25.44;50.24
64086;BME280;50333;47.436;21.390;2022-08-19T04:29:22;100126.34;;;25.44;50.05
64086;BME280;50333;47.436;21.390;2022-08-19T04:31:54;100116.59;;;25.58;49.71
64086;BME280;50333;47.436;21.390;2022-08-19T04:34:26;100125.00;;;25.64;49.86
64086;BME280;50333;47.436;21.390;2022-08-19T04:36:56;100125.81;;;25.72;49.92
64086;BME280;50333;47.436;21.390;2022-08-19T04:39:30;100124.22;;;25.64;49.71
64086;BME280;50333;47.436;21.390;2022-08-19T04:42:17;100137.41;;;25.42;50.35
64086;BME280;50333;47.436;21.390;2022-08-19T04:45:05;100142.56;;;25.69;49.85
64086;BME280;50333;47.436;21.390;2022-08-19T04:47:42;100131.22;;;25.79;49.37
64086;BME280;50333;47.436;21.390;2022-08-19T04:50:26;100122.81;;;25.77;49.42
64086;BME280;50333;47.436;21.390;2022-08-19T04:52:54;100124.75;;;25.80;49.56
64086;BME280;50333;47.436;21.390;2022-08-19T04:55:23;100123.56;;;25.74;49.88
64086;BME280;50333;47.436;21.390;2022-08-19T04:57:55;100120.22;;;25.88;49.33
64086;BME280;50333;47.436;21.390;2022-08-19T05:00:23;100123.69;;;25.88;49.42
64086;BME280;50333;47.436;21.390;2022-08-19T05:02:51;100132.44;;;25.89;49.54
64086;BME280;50333;47.436;21.390;2022-08-19T05:05:19;100131.66;;;25.85;49.47
64086;BME280;50333;47.436;21.390;2022-08-19T05:07:48;100135.16;;;25.92;49.37
64086;BME280;50333;47.436;21.390;2022-08-19T05:10:16;100132.97;;;26.09;49.33
64086;BME280;50333;47.436;21.390;2022-08-19T05:12:44;100131.72;;;25.92;49.54
64086;BME280;50333;47.436;21.390;2022-08-19T05:15:12;100128.41;;;26.06;49.06
64086;BME280;50333;47.436;21.390;2022-08-19T05:17:40;100118.94;;;26.19;49.16
64086;BME280;50333;47.436;21.390;2022-08-19T05:20:28;100121.87;;;26.00;49.67
64086;BME280;50333;47.436;21.390;2022-08-19T05:23:14;100117.50;;;26.32;49.23
64086;BME280;50333;47.436;21.390;2022-08-19T05:25:50;100124.75;;;26.36;48.85
64086;BME280;50333;47.436;21.390;2022-08-19T05:28:19;100133.06;;;26.20;49.10
64086;BME280;50333;47.436;21.390;2022-08-19T05:30:48;100134.28;;;26.33;49.39
64086;BME280;50333;47.436;21.390;2022-08-19T05:33:18;100151.19;;;26.48;48.82
64086;BME280;50333;47.436;21.390;2022-08-19T05:35:46;100160.00;;;26.59;48.39
64086;BME280;50333;47.436;21.390;2022-08-19T05:38:17;100159.31;;;26.66;48.42
64086;BME280;50333;47.436;21.390;2022-08-19T05:40:45;100157.88;;;26.86;47.82
64086;BME280;50333;47.436;21.390;2022-08-19T05:43:14;100153.31;;;26.98;47.71
64086;BME280;50333;47.436;21.390;2022-08-19T05:45:45;100147.91;;;26.80;47.83
64086;BME280;50333;47.436;21.390;2022-08-19T05:48:13;100147.53;;;26.78;48.22
64086;BME280;50333;47.436;21.390;2022-08-19T05:50:42;100144.53;;;27.04;48.23
64086;BME280;50333;47.436;21.390;2022-08-19T05:53:10;100143.41;;;27.05;47.82
64086;BME280;50333;47.436;21.390;2022-08-19T05:55:37;100139.66;;;27.28;47.44
64086;BME280;50333;47.436;21.390;2022-08-19T05:58:06;100131.63;;;27.35;46.96
64086;BME280;50333;47.436;21.390;2022-08-19T06:00:37;100135.09;;;27.54;46.85
64086;BME280;50333;47.436;21.390;2022-08-19T06:03:05;100126.69;;;27.66;46.91
64086;BME280;50333;47.436;21.390;2022-08-19T06:05:40;100125.13;;;27.87;46.64
64086;BME280;50333;47.436;21.390;2022-08-19T06:08:19;100130.12;;;27.77;46.42
64086;BME280;50333;47.436;21.390;2022-08-19T06:11:14;100138.94;;;27.96;45.49
64086;BME280;50333;47.436;21.390;2022-08-19T06:13:44;100142.75;;;28.16;45.40
64086;BME280;50333;47.436;21.390;2022-08-19T06:16:21;100151.12;;;28.33;45.31
64086;BME280;50333;47.436;21.390;2022-08-19T06:18:51;100154.12;;;28.53;44.69
64086;BME280;50333;47.436;21.390;2022-08-19T06:21:24;100154.16;;;28.42;44.38
64086;BME280;50333;47.436;21.390;2022-08-19T06:23:52;100164.84;;;28.53;44.43
64086;BME280;50333;47.436;21.390;2022-08-19T06:26:22;100164.88;;;28.56;44.03
64086;BME280;50333;47.436;21.390;2022-08-19T06:28:52;100167.16;;;28.65;43.81
64086;BME280;50333;47.436;21.390;2022-08-19T06:31:23;100177.13;;;28.57;44.09
64086;BME280;50333;47.436;21.390;2022-08-19T06:33:51;100175.50;;;28.85;43.43
64086;BME280;50333;47.436;21.390;2022-08-19T06:38:53;100176.88;;;29.22;43.47
64086;BME280;50333;47.436;21.390;2022-08-19T06:41:21;100171.75;;;29.46;42.34
64086;BME280;50333;47.436;21.390;2022-08-19T06:43:48;100170.19;;;29.48;42.08
64086;BME280;50333;47.436;21.390;2022-08-19T06:46:21;100168.34;;;29.34;42.73
64086;BME280;50333;47.436;21.390;2022-08-19T06:48:49;100167.50;;;29.48;42.87
64086;BME280;50333;47.436;21.390;2022-08-19T06:51:17;100165.78;;;29.76;41.94
64086;BME280;50333;47.436;21.390;2022-08-19T06:53:51;100165.63;;;29.94;42.06
64086;BME280;50333;47.436;21.390;2022-08-19T06:56:26;100169.25;;;29.77;42.66
64086;BME280;50333;47.436;21.390;2022-08-19T06:59:01;100170.44;;;30.14;41.35
64086;BME280;50333;47.436;21.390;2022-08-19T07:01:29;100178.38;;;30.24;41.58
64086;BME280;50333;47.436;21.390;2022-08-19T07:03:57;100179.22;;;30.18;41.01
64086;BME280;50333;47.436;21.390;2022-08-19T07:06:25;100181.03;;;29.86;41.58
64086;BME280;50333;47.436;21.390;2022-08-19T07:09:15;100182.38;;;30.51;40.29
64086;BME280;50333;47.436;21.390;2022-08-19T07:11:47;100167.91;;;30.72;40.14
64086;BME280;50333;47.436;21.390;2022-08-19T07:14:18;100178.53;;;30.82;39.89
64086;BME280;50333;47.436;21.390;2022-08-19T07:16:49;100176.97;;;30.85;39.53
64086;BME280;50333;47.436;21.390;2022-08-19T07:19:18;100179.00;;;31.08;38.72
64086;BME280;50333;47.436;21.390;2022-08-19T07:21:49;100180.53;;;31.09;39.54
64086;BME280;50333;47.436;21.390;2022-08-19T07:24:20;100183.56;;;31.11;39.42
64086;BME280;50333;47.436;21.390;2022-08-19T07:26:48;100174.56;;;31.49;38.65
64086;BME280;50333;47.436;21.390;2022-08-19T07:29:19;100172.78;;;31.66;38.47
64086;BME280;50333;47.436;21.390;2022-08-19T07:31:51;100171.03;;;31.79;38.11
64086;BME280;50333;47.436;21.390;2022-08-19T07:34:20;100178.47;;;31.95;37.30
64086;BME280;50333;47.436;21.390;2022-08-19T07:36:49;100178.38;;;31.99;36.74
64086;BME280;50333;47.436;21.390;2022-08-19T07:39:30;100175.94;;;32.08;37.10
64086;BME280;50333;47.436;21.390;2022-08-19T07:42:00;100165.31;;;32.21;36.81
64086;BME280;50333;47.436;21.390;2022-08-19T07:44:28;100162.06;;;32.49;36.03
64086;BME280;50333;47.436;21.390;2022-08-19T07:46:57;100161.78;;;32.44;36.31
64086;BME280;50333;47.436;21.390;2022-08-19T07:49:25;100153.97;;;32.69;36.21
64086;BME280;50333;47.436;21.390;2022-08-19T07:51:56;100154.69;;;32.90;35.17
64086;BME280;50333;47.436;21.390;2022-08-19T07:54:26;100154.53;;;32.97;35.06
64086;BME280;50333;47.436;21.390;2022-08-19T07:56:55;100158.75;;;32.98;35.05
64086;BME280;50333;47.436;21.390;2022-08-19T07:59:23;100158.91;;;33.28;34.21
64086;BME280;50333;47.436;21.390;2022-08-19T08:01:51;100163.19;;;33.41;33.96
64086;BME280;50333;47.436;21.390;2022-08-19T08:04:20;100160.91;;;33.40;34.06
64086;BME280;50333;47.436;21.390;2022-08-19T08:07:07;100154.91;;;33.65;33.65
64086;BME280;50333;47.436;21.390;2022-08-19T08:09:58;100149.84;;;33.18;33.68
64086;BME280;50333;47.436;21.390;2022-08-19T08:12:34;100153.56;;;33.57;33.53
64086;BME280;50333;47.436;21.390;2022-08-19T08:15:07;100155.06;;;33.58;33.51
64086;BME280;50333;47.436;21.390;2022-08-19T08:17:39;100145.78;;;33.75;33.04
64086;BME280;50333;47.436;21.390;2022-08-19T08:20:19;100146.97;;;33.58;33.52
64086;BME280;50333;47.436;21.390;2022-08-19T08:22:47;100143.75;;;33.79;32.59
64086;BME280;50333;47.436;21.390;2022-08-19T08:25:35;100136.50;;;33.76;32.38
64086;BME280;50333;47.436;21.390;2022-08-19T08:28:04;100136.16;;;33.08;33.57
64086;BME280;50333;47.436;21.390;2022-08-19T08:30:32;100138.34;;;33.79;32.63
64086;BME280;50333;47.436;21.390;2022-08-19T08:33:02;100134.03;;;33.82;32.04
64086;BME280;50333;47.436;21.390;2022-08-19T08:35:30;100123.94;;;33.99;32.21
64086;BME280;50333;47.436;21.390;2022-08-19T08:37:58;100126.09;;;34.04;31.41
64086;BME280;50333;47.436;21.390;2022-08-19T08:40:39;100130.44;;;33.72;32.29
64086;BME280;50333;47.436;21.390;2022-08-19T08:46:03;100123.97;;;33.66;31.38
64086;BME280;50333;47.436;21.390;2022-08-19T08:48:54;100116.53;;;33.87;30.55
64086;BME280;50333;47.436;21.390;2022-08-19T08:51:28;100110.72;;;34.01;30.67
64086;BME280;50333;47.436;21.390;2022-08-19T08:54:05;100114.75;;;33.96;30.71
64086;BME280;50333;47.436;21.390;2022-08-19T08:56:41;100114.97;;;34.44;30.71
64086;BME280;50333;47.436;21.390;2022-08-19T08:59:21;100112.59;;;34.46;29.05
64086;BME280;50333;47.436;21.390;2022-08-19T09:01:52;100108.91;;;34.66;29.46
64086;BME280;50333;47.436;21.390;2022-08-19T09:04:20;100109.88;;;34.46;29.33
64086;BME280;50333;47.436;21.390;2022-08-19T09:07:13;100117.78;;;34.53;28.79
64086;BME280;50333;47.436;21.390;2022-08-19T09:10:22;100110.09;;;34.52;29.08
64086;BME280;50333;47.436;21.390;2022-08-19T09:15:34;100107.50;;;34.35;29.22
64086;BME280;50333;47.436;21.390;2022-08-19T09:18:04;100115.50;;;34.39;29.56
64086;BME280;50333;47.436;21.390;2022-08-19T09:20:34;100116.72;;;34.64;29.11
64086;BME280;50333;47.436;21.390;2022-08-19T09:23:01;100123.34;;;34.88;28.58
64086;BME280;50333;47.436;21.390;2022-08-19T09:25:31;100111.34;;;34.77;27.74
64086;BME280;50333;47.436;21.390;2022-08-19T09:28:02;100116.97;;;34.82;28.11
64086;BME280;50333;47.436;21.390;2022-08-19T09:30:40;100106.47;;;34.71;28.24
64086;BME280;50333;47.436;21.390;2022-08-19T09:33:09;100113.38;;;34.72;27.96
64086;BME280;50333;47.436;21.390;2022-08-19T09:35:36;100111.97;;;35.06;27.55
64086;BME280;50333;47.436;21.390;2022-08-19T09:38:20;100110.03;;;34.81;28.77
64086;BME280;50333;47.436;21.390;2022-08-19T09:40:48;100111.00;;;35.00;27.94
64086;BME280;50333;47.436;21.390;2022-08-19T09:43:17;100121.25;;;35.18;28.16
64086;BME280;50333;47.436;21.390;2022-08-19T09:46:01;100121.94;;;35.22;27.27
64086;BME280;50333;47.436;21.390;2022-08-19T09:48:29;100122.25;;;35.24;27.25
64086;BME280;50333;47.436;21.390;2022-08-19T09:51:11;100110.75;;;35.07;26.75
64086;BME280;50333;47.436;21.390;2022-08-19T09:53:44;100113.81;;;35.22;26.38
64086;BME280;50333;47.436;21.390;2022-08-19T09:56:12;100106.22;;;35.17;27.50
64086;BME280;50333;47.436;21.390;2022-08-19T09:58:40;100110.00;;;35.07;26.68
64086;BME280;50333;47.436;21.390;2022-08-19T10:01:08;100116.13;;;34.85;27.64
64086;BME280;50333;47.436;21.390;2022-08-19T10:03:37;100100.69;;;35.08;27.21
64086;BME280;50333;47.436;21.390;2022-08-19T10:06:05;100097.66;;;35.06;27.74
64086;BME280;50333;47.436;21.390;2022-08-19T10:08:45;100095.22;;;35.34;27.75
64086;BME280;50333;47.436;21.390;2022-08-19T10:11:20;100096.91;;;35.53;27.23
64086;BME280;50333;47.436;21.390;2022-08-19T10:14:06;100089.09;;;35.55;26.95
64086;BME280;50333;47.436;21.390;2022-08-19T10:16:41;100085.34;;;35.75;27.75
64086;BME280;50333;47.436;21.390;2022-08-19T10:19:20;100082.00;;;35.71;26.44
64086;BME280;50333;47.436;21.390;2022-08-19T10:21:55;100077.41;;;36.02;26.14
64086;BME280;50333;47.436;21.390;2022-08-19T10:24:31;100066.59;;;36.12;24.70
64086;BME280;50333;47.436;21.390;2022-08-19T10:27:04;100062.88;;;35.96;25.54
64086;BME280;50333;47.436;21.390;2022-08-19T10:29:40;100064.28;;;36.23;25.06
64086;BME280;50333;47.436;21.390;2022-08-19T10:32:15;100052.03;;;35.96;25.97
64086;BME280;50333;47.436;21.390;2022-08-19T10:34:43;100056.47;;;35.81;25.54
64086;BME280;50333;47.436;21.390;2022-08-19T10:37:16;100064.28;;;36.01;25.09
64086;BME280;50333;47.436;21.390;2022-08-19T10:39:58;100062.38;;;35.66;26.23
64086;BME280;50333;47.436;21.390;2022-08-19T10:42:26;100059.44;;;35.74;25.80
64086;BME280;50333;47.436;21.390;2022-08-19T10:44:54;100062.25;;;35.92;25.85
64086;BME280;50333;47.436;21.390;2022-08-19T10:47:22;100072.84;;;35.99;24.70
64086;BME280;50333;47.436;21.390;2022-08-19T10:49:53;100073.00;;;35.74;25.80
64086;BME280;50333;47.436;21.390;2022-08-19T10:52:44;100062.53;;;35.85;25.53
64086;BME280;50333;47.436;21.390;2022-08-19T10:55:17;100058.59;;;35.64;26.48
64086;BME280;50333;47.436;21.390;2022-08-19T10:58:16;100051.63;;;35.41;26.15
64086;BME280;50333;47.436;21.390;2022-08-19T11:00:50;100045.00;;;35.77;26.32
64086;BME280;50333;47.436;21.390;2022-08-19T11:03:19;100036.13;;;35.63;26.16
64086;BME280;50333;47.436;21.390;2022-08-19T11:05:46;100036.63;;;35.93;25.55
64086;BME280;50333;47.436;21.390;2022-08-19T11:08:16;100037.22;;;35.88;24.34
64086;BME280;50333;47.436;21.390;2022-08-19T11:10:54;100048.66;;;35.83;24.74
64086;BME280;50333;47.436;21.390;2022-08-19T11:13:44;100034.88;;;35.99;24.89
64086;BME280;50333;47.436;21.390;2022-08-19T11:16:25;100031.72;;;35.79;25.72
64086;BME280;50333;47.436;21.390;2022-08-19T11:18:57;100042.69;;;35.31;26.41
64086;BME280;50333;47.436;21.390;2022-08-19T11:21:31;100046.25;;;35.85;26.20
64086;BME280;50333;47.436;21.390;2022-08-19T11:24:02;100042.75;;;36.06;26.16
64086;BME280;50333;47.436;21.390;2022-08-19T11:26:31;100039.06;;;36.22;26.15
64086;BME280;50333;47.436;21.390;2022-08-19T11:29:00;100031.81;;;36.19;25.92
64086;BME280;50333;47.436;21.390;2022-08-19T11:31:31;100037.69;;;36.18;25.88
64086;BME280;50333;47.436;21.390;2022-08-19T11:34:03;100042.00;;;36.37;25.35
64086;BME280;50333;47.436;21.390;2022-08-19T11:36:31;100029.97;;;36.48;25.25
64086;BME280;50333;47.436;21.390;2022-08-19T11:39:03;100037.56;;;36.62;25.35
64086;BME280;50333;47.436;21.390;2022-08-19T11:41:31;100025.00;;;36.46;24.72
64086;BME280;50333;47.436;21.390;2022-08-19T11:43:59;100022.47;;;36.61;24.90
64086;BME280;50333;47.436;21.390;2022-08-19T11:46:27;100032.31;;;36.27;25.19
64086;BME280;50333;47.436;21.390;2022-08-19T11:48:57;100024.78;;;36.31;25.81
64086;BME280;50333;47.436;21.390;2022-08-19T11:51:27;100026.13;;;36.27;25.96
64086;BME280;50333;47.436;21.390;2022-08-19T11:53:57;100014.66;;;36.22;26.03
64086;BME280;50333;47.436;21.390;2022-08-19T11:56:26;100014.31;;;36.52;25.12
64086;BME280;50333;47.436;21.390;2022-08-19T11:58:55;100026.28;;;36.01;25.92
64086;BME280;50333;47.436;21.390;2022-08-19T12:01:26;100024.31;;;36.23;25.16
64086;BME280;50333;47.436;21.390;2022-08-19T12:03:55;100022.44;;;36.42;25.67
64086;BME280;50333;47.436;21.390;2022-08-19T12:06:28;100018.47;;;36.34;24.79
64086;BME280;50333;47.436;21.390;2022-08-19T12:08:58;100016.47;;;36.26;24.41
64086;BME280;50333;47.436;21.390;2022-08-19T12:11:27;100015.97;;;36.18;25.57
64086;BME280;50333;47.436;21.390;2022-08-19T12:14:01;100024.09;;;35.64;25.52
64086;BME280;50333;47.436;21.390;2022-08-19T12:16:30;100013.19;;;35.77;25.98
64086;BME280;50333;47.436;21.390;2022-08-19T12:19:00;100014.69;;;36.00;25.92
64086;BME280;50333;47.436;21.390;2022-08-19T12:21:34;100018.75;;;36.27;25.55
64086;BME280;50333;47.436;21.390;2022-08-19T12:24:06;100008.72;;;36.15;26.21
64086;BME280;50333;47.436;21.390;2022-08-19T12:26:35;100000.13;;;35.85;26.26
64086;BME280;50333;47.436;21.390;2022-08-19T12:29:21;99988.00;;;36.30;25.62
64086;BME280;50333;47.436;21.390;2022-08-19T12:31:51;99981.34;;;36.31;24.86
64086;BME280;50333;47.436;21.390;2022-08-19T12:34:19;99982.47;;;36.12;25.57
64086;BME280;50333;47.436;21.390;2022-08-19T12:36:47;99986.00;;;36.21;25.79
64086;BME280;50333;47.436;21.390;2022-08-19T12:39:17;99985.09;;;36.24;25.86
64086;BME280;50333;47.436;21.390;2022-08-19T12:41:45;99980.03;;;36.36;25.67
64086;BME280;50333;47.436;21.390;2022-08-19T12:44:22;99970.84;;;36.52;24.99
64086;BME280;50333;47.436;21.390;2022-08-19T12:46:56;99966.31;;;36.49;24.98
64086;BME280;50333;47.436;21.390;2022-08-19T12:49:24;99964.16;;;36.25;25.32
64086;BME280;50333;47.436;21.390;2022-08-19T12:52:15;99962.13;;;36.66;24.35
64086;BME280;50333;47.436;21.390;2022-08-19T12:54:51;99966.09;;;36.74;24.43
64086;BME280;50333;47.436;21.390;2022-08-19T12:57:23;99964.22;;;36.62;24.07
64086;BME280;50333;47.436;21.390;2022-08-19T13:00:12;99957.66;;;36.91;24.22
64086;BME280;50333;47.436;21.390;2022-08-19T13:02:44;99961.09;;;36.73;24.47
64086;BME280;50333;47.436;21.390;2022-08-19T13:05:17;99953.09;;;36.69;24.81
64086;BME280;50333;47.436;21.390;2022-08-19T13:07:47;99951.97;;;36.39;24.86
64086;BME280;50333;47.436;21.390;2022-08-19T13:10:18;99947.37;;;36.76;24.87
64086;BME280;50333;47.436;21.390;2022-08-19T13:12:49;99947.41;;;36.86;24.62
64086;BME280;50333;47.436;21.390;2022-08-19T13:15:19;99938.78;;;36.96;24.11